M I D A S
Marine Information and Data Acquisition System
Tripno 631 of the Zeeleeuw from 2004-01-21 07:43:08 to 2004-01-21 15:52:35
Back to CruiseResearch ActivitiesStationsMapUnderway DataData graphs

EquipmentUnitsComment
TimeDGPSUTC
LatitudeDGPSDM.mWGS84
LongitudeDGPSDM.mWGS84
HeadingGyrodeg 
SOGDGPSknotsSpeed over ground
COGDGPSdegCourse over ground
DepthEcho soundermeters200 kHz
Missing or incorrect values are displayed as -999
Navigation data collected by the RV Zeeleeuw from 2004-01-21 07:43:08 to 2004-01-21 15:52:35
Time Latitude Longitude Heading SOG COG Depth
2004-01-21 07:44:10 51°14.038 2°55.479 341.1 7.4 337 8.7
2004-01-21 07:45:07 51°14.154 2°55.392 337.8 9.2 333 9
2004-01-21 07:46:09 51°14.29 2°55.219 315.5 10.8 310 9.5
2004-01-21 07:47:09 51°14.381 2°54.957 291.4 12.2 284 9.6
2004-01-21 07:48:09 51°14.391 2°54.613 268 13.8 262 9.9
2004-01-21 07:49:07 51°14.306 2°54.28 242.8 14.2 239 8.4
2004-01-21 07:50:10 51°14.174 2°53.943 239 14.4 236 8.2
2004-01-21 07:51:10 51°14.043 2°53.625 246 14.4 242 8.3
2004-01-21 07:52:08 51°13.933 2°53.298 244.1 14.5 241 8.6
2004-01-21 07:53:09 51°13.817 2°52.95 246.6 14.7 242 8.9
2004-01-21 07:54:10 51°13.701 2°52.598 247.1 14.8 243 9.2
2004-01-21 07:55:10 51°13.586 2°52.248 246 14.9 242 9.7
2004-01-21 07:56:10 51°13.474 2°51.897 247.4 15 242 9.8
2004-01-21 07:57:09 51°13.359 2°51.551 247.2 15 242 9.7
2004-01-21 07:58:10 51°13.239 2°51.193 246.5 15 242 9.8
2004-01-21 07:59:10 51°13.118 2°50.844 243.8 15.1 240 10
2004-01-21 08:00:09 51°12.998 2°50.503 244.5 14.9 240 10.1
2004-01-21 08:01:09 51°12.876 2°50.156 244.1 15 240 10.3
2004-01-21 08:02:10 51°12.753 2°49.802 244.5 15 242 10.4
2004-01-21 08:03:10 51°12.633 2°49.455 244.5 15 241 10.6
2004-01-21 08:04:10 51°12.513 2°49.112 244.5 14.7 241 10.7
2004-01-21 08:05:08 51°12.401 2°48.779 248.5 14.8 246 10.7
2004-01-21 08:06:09 51°12.298 2°48.414 250 14.9 246 11.1
2004-01-21 08:07:10 51°12.195 2°48.046 250.2 15 247 11.4
2004-01-21 08:08:10 51°12.105 2°47.679 252.8 14.9 249 11.5
2004-01-21 08:09:10 51°12.021 2°47.307 256.2 15 253 12
2004-01-21 08:10:10 51°11.941 2°46.929 255.4 15 251 12.2
2004-01-21 08:11:09 51°11.863 2°46.557 254.8 15.1 250 12.3
2004-01-21 08:12:10 51°11.782 2°46.171 255.4 15.1 252 12.4
2004-01-21 08:13:10 51°11.702 2°45.79 255.4 15.1 251 12.5
2004-01-21 08:14:10 51°11.623 2°45.411 255.4 15.1 252 12.4
2004-01-21 08:15:09 51°11.546 2°45.037 256 15.1 251 12.4
2004-01-21 08:16:09 51°11.469 2°44.657 255.5 15.1 253 12.4
2004-01-21 08:17:09 51°11.398 2°44.274 256.7 15 253 12.5
2004-01-21 08:18:09 51°11.327 2°43.891 257.7 15.1 254 12.4
2004-01-21 08:19:09 51°11.249 2°43.514 255 15 252 12.4
2004-01-21 08:20:10 51°11.169 2°43.134 255.2 14.8 252 12.4
2004-01-21 08:21:09 51°11.09 2°42.768 252.8 14.9 251 12.4
2004-01-21 08:22:10 51°11.023 2°42.387 268.9 14.5 271 12.4
2004-01-21 08:23:10 51°11.109 2°42.209 356.7 5.8 352 12.3
2004-01-21 08:24:09 51°11.163 2°42.232 37.7 1.6 16 12.2
2004-01-21 08:25:09 51°11.175 2°42.225 22.5 0.8 328 12.1
2004-01-21 08:26:09 51°11.185 2°42.216 35.9 0.5 296 12
2004-01-21 08:27:08 51°11.178 2°42.193 39.1 1.6 236 12.1
2004-01-21 08:28:09 51°11.156 2°42.156 25.8 2.1 223 12.1
2004-01-21 08:29:10 51°11.157 2°42.137 21 0.8 320 12.2
2004-01-21 08:30:10 51°11.166 2°42.126 30.3 0.6 313 12.2
2004-01-21 08:31:10 51°11.174 2°42.118 40.4 0.5 327 12.1
2004-01-21 08:32:10 51°11.179 2°42.117 47.9 0.5 349 12.1
2004-01-21 08:33:08 51°11.186 2°42.119 54.2 0.4 25 12.1
2004-01-21 08:34:10 51°11.193 2°42.126 60.5 0.5 37 12.1
2004-01-21 08:35:10 51°11.2 2°42.134 64.5 0.6 43 12.1
2004-01-21 08:36:08 51°11.206 2°42.145 69.5 0.5 59 12.2
2004-01-21 08:37:09 51°11.209 2°42.164 85.6 1.4 84 12.2
2004-01-21 08:38:09 51°11.165 2°42.221 162.9 5.2 171 12.3
2004-01-21 08:39:07 51°11.099 2°42.122 257 7.3 253 12.4
2004-01-21 08:40:08 51°11.051 2°41.816 260.3 14 256 12.2
2004-01-21 08:41:10 51°10.994 2°41.434 260.7 14.4 257 12.2
2004-01-21 08:42:10 51°10.938 2°41.061 260.5 14.5 257 12.6
2004-01-21 08:43:08 51°10.882 2°40.701 258.9 14.6 254 13.1
2004-01-21 08:44:08 51°10.819 2°40.329 259 14.5 255 13.7
2004-01-21 08:45:07 51°10.758 2°39.963 259.3 14.5 255 14.4
2004-01-21 08:46:09 51°10.693 2°39.577 259.1 14.7 255 14.9
2004-01-21 08:47:08 51°10.632 2°39.209 259.6 14.6 255 15.9
2004-01-21 08:48:08 51°10.568 2°38.836 258.9 14.5 254 16.9
2004-01-21 08:49:09 51°10.506 2°38.46 259.8 14.3 255 17.7
2004-01-21 08:50:09 51°10.438 2°38.095 257.6 14.3 252 18.2
2004-01-21 08:51:09 51°10.368 2°37.734 257.1 14.4 253 18.3
2004-01-21 08:52:10 51°10.298 2°37.368 256.9 14.2 253 18.1
2004-01-21 08:53:09 51°10.232 2°37.015 257 14.1 254 18.2
2004-01-21 08:54:10 51°10.163 2°36.651 257.4 14.1 254 18.3
2004-01-21 08:55:09 51°10.096 2°36.298 257.5 14.2 254 18
2004-01-21 08:56:09 51°10.11 2°35.933 293.1 13.9 287 15.9
2004-01-21 08:57:09 51°10.25 2°35.657 325.6 13.4 322 11.4
2004-01-21 08:58:10 51°10.466 2°35.589 9.4 13.1 7 11
2004-01-21 08:59:10 51°10.667 2°35.72 34.7 13.3 30 11.1
2004-01-21 09:00:08 51°10.852 2°35.895 35.3 13.4 31 11.2
2004-01-21 09:01:19 51°11.077 2°36.111 35.6 13.3 31 11.4
2004-01-21 09:02:29 51°11.298 2°36.327 36.2 13.4 31 11.6
2004-01-21 09:03:29 51°11.487 2°36.513 35.7 13.3 31 11.6
2004-01-21 09:04:28 51°11.673 2°36.696 36.1 13.4 32 11.5
2004-01-21 09:05:29 51°11.865 2°36.885 36 13.2 32 11.2
2004-01-21 09:06:28 51°12.051 2°37.069 36 13.3 31 11.3
2004-01-21 09:07:28 51°12.24 2°37.254 36.5 13.4 31 11.6
2004-01-21 09:08:29 51°12.433 2°37.442 35.8 13.4 31 12.1
2004-01-21 09:09:28 51°12.619 2°37.623 36.6 13.4 31 12.8
2004-01-21 09:10:28 51°12.809 2°37.809 36.2 13.3 32 13.3
2004-01-21 09:11:28 51°12.999 2°37.994 36.1 13.5 31 14.1
2004-01-21 09:16:34 51°13.995 2°38.808 2.4 13.1 354 12.9
2004-01-21 09:17:34 51°14.203 2°38.701 346.8 13.3 340 15.3
2004-01-21 09:18:34 51°14.413 2°38.58 345.2 13.5 338 18.4
2004-01-21 09:19:32 51°14.611 2°38.448 345.4 13.4 338 17.7
2004-01-21 09:20:34 51°14.822 2°38.303 341.8 13.4 334 17
2004-01-21 09:21:33 51°15.021 2°38.159 342.5 13.2 336 14.9
2004-01-21 09:22:31 51°15.213 2°38.008 339.2 13.4 333 12
2004-01-21 09:23:39 51°15.437 2°37.824 337.7 13.4 332 11.9
2004-01-21 09:24:41 51°15.643 2°37.658 338 13.5 333 11.4
2004-01-21 09:29:19 51°16.531 2°36.908 333.6 9.1 326 27.3
2004-01-21 09:30:21 51°16.6 2°36.776 299.7 4.2 290 27.5
2004-01-21 09:31:19 51°16.601 2°36.75 291.4 1.1 121 -999
2004-01-21 09:32:23 51°16.597 2°36.76 292.5 0.2 161 27.7
2004-01-21 09:33:26 51°16.596 2°36.754 287.7 0.4 265 27.8
2004-01-21 09:34:24 51°16.597 2°36.741 279.3 0.6 274 27.7
2004-01-21 09:35:23 51°16.596 2°36.723 266.7 0.7 266 27.7
2004-01-21 09:36:25 51°16.596 2°36.711 258.9 0.2 30 27.9
2004-01-21 09:37:26 51°16.6 2°36.722 265.8 0.8 68 27.8
2004-01-21 09:38:26 51°16.603 2°36.743 280.4 0.6 78 27.9
2004-01-21 09:39:26 51°16.605 2°36.75 285.4 0.1 56 27.8
2004-01-21 09:40:26 51°16.608 2°36.748 281.9 0.2 302 28
2004-01-21 09:41:26 51°16.61 2°36.739 270.7 0.4 292 28
2004-01-21 09:42:26 51°16.611 2°36.727 260.1 0.5 276 27.9
2004-01-21 09:43:26 51°16.599 2°36.653 260.4 6.5 258 28.1
2004-01-21 09:44:24 51°16.619 2°36.399 293.2 12 290 27.7
2004-01-21 09:45:25 51°16.727 2°36.082 305 13.7 301 28
2004-01-21 09:46:24 51°16.842 2°35.774 306.9 13.7 303 25.7
2004-01-21 09:47:26 51°16.991 2°35.486 314.3 13.5 310 16.8
2004-01-21 09:48:25 51°17.145 2°35.237 319 13.3 315 12.7
2004-01-21 09:49:23 51°17.296 2°34.999 318 13.3 315 13.2
2004-01-21 09:50:26 51°17.462 2°34.743 319.2 13 317 11.9
2004-01-21 09:51:23 51°17.614 2°34.511 318.5 13.6 316 24.5
2004-01-21 09:52:25 51°17.782 2°34.247 318.3 13.6 315 28.7
2004-01-21 09:53:26 51°17.95 2°33.989 318.2 13.8 316 29.9
2004-01-21 09:54:24 51°18.108 2°33.74 317.8 13.7 314 27.6
2004-01-21 09:55:26 51°18.257 2°33.454 311.8 13.5 309 21.7
2004-01-21 09:56:26 51°18.398 2°33.176 311 13.6 309 22.5
2004-01-21 10:04:08 51°19.5 2°30.994 312.6 13.6 311 30.3
2004-01-21 10:10:47 51°19.973 2°30.029 288.4 5.4 289 16.2
2004-01-21 10:11:47 51°20.017 2°29.944 323.9 2.7 354 16.3
2004-01-21 10:12:47 51°20.034 2°29.971 355.9 1.5 55 13.8
2004-01-21 10:13:47 51°20.049 2°30.001 14.5 1.3 54 17.2
2004-01-21 10:14:47 51°20.063 2°30.033 26.9 1.5 57 15.8
2004-01-21 10:15:48 51°20.076 2°30.072 42 1.5 60 16.6
2004-01-21 10:16:47 51°20.088 2°30.11 46.5 1.8 66 14.2
2004-01-21 10:17:51 51°20.107 2°30.162 37.8 2.4 55 16.1
2004-01-21 10:18:59 51°20.151 2°30.213 352.4 2.9 18 16.2
2004-01-21 10:19:59 51°20.213 2°30.206 347.6 5.6 3 16
2004-01-21 10:20:59 51°20.316 2°30.318 43.6 9.1 47 13.8
2004-01-21 10:21:59 51°20.447 2°30.536 50 13.3 51 12.8
2004-01-21 10:22:59 51°20.577 2°30.864 61.3 15.1 60 14.8
2004-01-21 10:24:00 51°20.672 2°31.243 78 15.1 74 16
2004-01-21 10:24:59 51°20.743 2°31.619 76.8 15 73 19.3
2004-01-21 10:25:59 51°20.82 2°31.995 76.8 14.8 72 24.2
2004-01-21 10:26:59 51°20.899 2°32.365 75.8 14.7 71 31.1
2004-01-21 10:27:59 51°20.98 2°32.729 75 14.6 70 31.8
2004-01-21 10:29:00 51°21.062 2°33.1 75.4 14.4 71 32.9
2004-01-21 10:29:59 51°21.141 2°33.46 75.3 14.6 70 33.7
2004-01-21 10:31:00 51°21.224 2°33.83 75.5 14.5 70 35.1
2004-01-21 10:31:59 51°21.303 2°34.189 74.9 14.7 70 32.8
2004-01-21 10:33:00 51°21.388 2°34.564 75.6 14.8 70 35
2004-01-21 10:34:00 51°21.474 2°34.937 75.7 15 70 34.4
2004-01-21 10:34:59 51°21.558 2°35.303 75.6 14.9 71 33.4
2004-01-21 10:35:59 51°21.642 2°35.676 75.3 15 70 32.9
2004-01-21 10:36:59 51°21.727 2°36.049 75 14.9 70 34.5
2004-01-21 10:37:59 51°21.823 2°36.41 63.1 14.9 55 34.2
2004-01-21 10:38:59 51°21.984 2°36.712 53.4 14.9 50 33.3
2004-01-21 10:39:59 51°22.137 2°37.028 57 15 54 32.9
2004-01-21 10:40:59 51°22.292 2°37.339 53.1 14.9 49 32.8
2004-01-21 10:42:00 51°22.453 2°37.65 53.9 14.9 49 32.9
2004-01-21 10:42:59 51°22.637 2°37.907 40.4 14.9 37 32.4
2004-01-21 10:43:59 51°22.822 2°38.17 46.8 14.9 44 32.9
2004-01-21 10:45:00 51°23.001 2°38.449 46.9 14.8 44 32.6
2004-01-21 10:45:59 51°23.176 2°38.72 46.7 14.9 44 32.1
2004-01-21 10:46:59 51°23.335 2°39.027 55.6 15 52 31
2004-01-21 10:47:59 51°23.471 2°39.368 64.7 15.3 61 31.9
2004-01-21 10:49:00 51°23.591 2°39.735 67.9 15.3 62 31.6
2004-01-21 10:50:00 51°23.706 2°40.098 69.7 15.2 66 32.3
2004-01-21 10:50:59 51°23.81 2°40.461 69.5 15.3 64 30.4
2004-01-21 10:51:59 51°23.919 2°40.831 69.8 15.3 64 29.5
2004-01-21 10:53:00 51°24.031 2°41.207 70 15.4 66 30.7
2004-01-21 10:53:59 51°24.141 2°41.57 69.3 15.4 64 31.2
2004-01-21 10:54:59 51°24.251 2°41.939 69.8 15.4 64 27.9
2004-01-21 10:55:59 51°24.364 2°42.309 69.5 15.5 64 25.5
2004-01-21 10:56:59 51°24.474 2°42.681 69.6 15.4 65 21.1
2004-01-21 10:58:00 51°24.588 2°43.06 69.5 15.5 65 26
2004-01-21 10:58:59 51°24.697 2°43.425 69 15.4 64 25.4
2004-01-21 10:59:59 51°24.808 2°43.798 69.3 15.5 65 24.9
2004-01-21 11:00:59 51°24.919 2°44.172 70.8 15.6 66 23.4
2004-01-21 11:01:59 51°25.02 2°44.553 72.6 15.4 67 28.2
2004-01-21 11:02:59 51°25.12 2°44.931 72.8 15.5 68 27.8
2004-01-21 11:03:59 51°25.22 2°45.311 72.7 15.3 67 26.2
2004-01-21 11:05:00 51°25.331 2°45.691 69.1 15.6 64 28.3
2004-01-21 11:06:00 51°25.443 2°46.063 69.5 15.7 64 26.5
2004-01-21 11:06:59 51°25.554 2°46.429 68.9 15.5 64 26.6
2004-01-21 11:07:59 51°25.667 2°46.799 69.2 15.4 64 26
2004-01-21 11:08:59 51°25.779 2°47.172 69.6 15.6 65 26.7
2004-01-21 11:09:59 51°25.894 2°47.544 69.4 15.5 63 26.2
2004-01-21 11:10:59 51°25.998 2°47.924 75 15.6 69 23.2
2004-01-21 11:11:59 51°26.07 2°48.246 76.8 11.2 70 25.9
2004-01-21 11:12:59 51°26.097 2°48.498 122 7.8 112 25.6
2004-01-21 11:13:59 51°26.018 2°48.547 212.1 3.5 200 25.5
2004-01-21 11:14:59 51°26 2°48.509 252.3 0.4 338 26.1
2004-01-21 11:16:00 51°26.017 2°48.507 267.8 1.2 356 26
2004-01-21 11:17:00 51°26.033 2°48.509 254.1 0.8 19 25.9
2004-01-21 11:17:59 51°26.046 2°48.516 243.8 0.8 26 26.2
2004-01-21 11:18:59 51°26.058 2°48.527 238.6 0.9 34 26.4
2004-01-21 11:20:00 51°26.07 2°48.542 230.2 1 36 25.7
2004-01-21 11:20:59 51°26.081 2°48.559 225 1 45 26
2004-01-21 11:22:00 51°26.093 2°48.577 220.5 1 54 26.4
2004-01-21 11:23:00 51°26.104 2°48.597 217.4 1.1 44 26.3
2004-01-21 11:23:59 51°26.084 2°48.615 181.6 3.9 146 26.7
2004-01-21 11:24:59 51°26.064 2°48.77 93.9 8.7 81 26.3
2004-01-21 11:25:59 51°26.123 2°49.109 82.1 15.2 77 26.3
2004-01-21 11:26:59 51°26.183 2°49.512 83.8 15.6 77 25.9
2004-01-21 11:27:59 51°26.24 2°49.916 83.5 15.6 77 25.7
2004-01-21 11:29:00 51°26.297 2°50.328 84.1 15.6 78 26.2
2004-01-21 11:29:59 51°26.348 2°50.727 85.1 15.5 79 26.1
2004-01-21 11:31:00 51°26.406 2°51.141 83.4 15.7 77 27.7
2004-01-21 11:32:00 51°26.461 2°51.545 83.8 15.6 77 28.1
2004-01-21 11:32:59 51°26.516 2°51.942 84.4 15.5 78 27.8
2004-01-21 11:33:59 51°26.57 2°52.346 84.9 15.5 78 29.3
2004-01-21 11:34:59 51°26.624 2°52.75 84.1 15.6 78 30.9
2004-01-21 11:35:59 51°26.679 2°53.154 84.5 15.5 78 32.9
2004-01-21 11:36:59 51°26.733 2°53.555 84 15.4 78 30.9
2004-01-21 11:38:00 51°26.789 2°53.965 84.7 15.4 77 31.2
2004-01-21 11:38:59 51°26.85 2°54.357 84.2 15.4 76 24.1
2004-01-21 11:40:00 51°26.911 2°54.764 85.1 15.3 77 29.5
2004-01-21 11:41:00 51°26.971 2°55.162 84.2 15.4 77 29.5
2004-01-21 11:42:00 51°27.031 2°55.56 84.4 15.4 76 32.1
2004-01-21 11:42:59 51°27.087 2°55.949 83.9 15.3 77 31.2
2004-01-21 11:44:17 51°27.165 2°56.465 84.2 15.4 76 27.7
2004-01-21 11:45:17 51°27.228 2°56.861 81.4 15.4 73 23.9
2004-01-21 11:46:17 51°27.298 2°57.254 82.1 15.2 74 27.6
2004-01-21 11:47:16 51°27.366 2°57.639 82.1 15.3 76 26.9
2004-01-21 11:48:17 51°27.433 2°58.038 82.7 15.3 74 24.2
2004-01-21 11:49:17 51°27.5 2°58.432 81.9 15.3 75 21.1
2004-01-21 11:50:16 51°27.564 2°58.82 82.7 15.2 75 21.5
2004-01-21 11:51:17 51°27.629 2°59.22 81.8 15.3 76 21.1
2004-01-21 11:52:15 51°27.693 2°59.597 82 15.2 75 21.5
2004-01-21 11:53:17 51°27.765 2°59.998 81.7 15.1 73 22.3
2004-01-21 11:54:17 51°27.838 3°0.386 81.8 15.2 73 23.9
2004-01-21 11:55:17 51°27.911 3°0.774 82.2 15.2 73 24.7
2004-01-21 11:56:17 51°27.984 3°1.165 82.2 15.3 74 25.3
2004-01-21 11:57:17 51°28.056 3°1.556 82.6 15.3 74 26.4
2004-01-21 11:58:17 51°28.127 3°1.948 82.2 15.3 74 26.5
2004-01-21 11:59:17 51°28.195 3°2.343 82.3 15.4 75 26.5
2004-01-21 12:00:17 51°28.262 3°2.739 82.7 15.3 76 26.5
2004-01-21 12:01:17 51°28.318 3°3.058 82.3 11.3 73 26.1
2004-01-21 12:02:17 51°28.37 3°3.336 83 10.7 75 25.9
2004-01-21 12:03:17 51°28.323 3°3.49 180.1 4.8 177 25.3
2004-01-21 12:04:17 51°28.297 3°3.44 257.2 1.2 297 25.3
2004-01-21 12:05:17 51°28.318 3°3.432 288 1.7 353 25.5
2004-01-21 12:06:15 51°28.34 3°3.427 267.9 1.2 352 25.5
2004-01-21 12:07:23 51°28.359 3°3.427 244.5 0.8 8 25.7
2004-01-21 12:08:23 51°28.371 3°3.434 229.8 0.8 31 25.7
2004-01-21 12:09:23 51°28.381 3°3.444 222 0.7 46 25.7
2004-01-21 12:10:23 51°28.389 3°3.458 210.4 0.8 57 25.7
2004-01-21 12:11:23 51°28.397 3°3.477 197.5 0.9 60 25.7
2004-01-21 12:12:23 51°28.404 3°3.502 184.1 1.2 68 25.6
2004-01-21 12:13:23 51°28.411 3°3.531 173.1 1.3 68 25.6
2004-01-21 12:14:23 51°28.42 3°3.564 160.9 1.5 68 25.6
2004-01-21 12:15:23 51°28.43 3°3.603 145.9 1.7 67 25.6
2004-01-21 12:16:23 51°28.439 3°3.648 151 1.9 77 25.5
2004-01-21 12:17:23 51°28.444 3°3.687 181.9 1.2 80 25.4
2004-01-21 12:18:23 51°28.447 3°3.707 212.6 0.5 68 25.4
2004-01-21 12:19:23 51°28.446 3°3.713 217.7 0.9 207 25.4
2004-01-21 12:20:23 51°28.413 3°3.668 224.6 4.1 223 25.3
2004-01-21 12:21:23 51°28.353 3°3.581 222.5 5.3 218 25.2
2004-01-21 12:22:23 51°28.296 3°3.508 228.6 2.8 227 25.2
2004-01-21 12:23:23 51°28.296 3°3.483 253 0.8 302 25.4
2004-01-21 12:24:23 51°28.302 3°3.474 229.8 0.2 350 25.3
2004-01-21 12:25:23 51°28.304 3°3.476 221.6 0.2 79 25.3
2004-01-21 12:26:28 51°28.305 3°3.482 217.2 0.3 90 25.2
2004-01-21 12:27:28 51°28.306 3°3.491 212.6 0.3 77 25.3
2004-01-21 12:28:28 51°28.293 3°3.466 242.9 3.8 259 25.3
2004-01-21 12:29:28 51°28.372 3°3.385 349.9 8 5 25.7
2004-01-21 12:30:27 51°28.446 3°3.545 98.5 9.1 88 25.6
2004-01-21 12:31:27 51°28.371 3°3.84 134.9 13.6 124 24.5
2004-01-21 12:32:28 51°28.229 3°4.141 135.1 14.1 124 22.4
2004-01-21 12:33:27 51°28.095 3°4.444 135.2 14.2 124 20.1
2004-01-21 12:34:28 51°27.957 3°4.756 133.4 14 124 17.5
2004-01-21 12:35:28 51°27.826 3°5.066 134 14.2 125 15.8
2004-01-21 12:36:28 51°27.693 3°5.372 134.6 13.9 126 17.2
2004-01-21 12:37:28 51°27.56 3°5.677 133.8 13.9 125 16.8
2004-01-21 12:38:28 51°27.428 3°5.984 133.5 14 124 16.4
2004-01-21 12:39:28 51°27.303 3°6.301 131.3 14.1 121 16.1
2004-01-21 12:40:27 51°27.181 3°6.611 131.2 13.8 122 15.6
2004-01-21 12:41:51 51°27.003 3°7.045 132.1 13.9 122 14.6
2004-01-21 12:42:51 51°26.877 3°7.353 131 13.6 124 14
2004-01-21 12:43:51 51°26.76 3°7.674 127.9 14.2 119 13.4
2004-01-21 12:44:51 51°26.66 3°7.988 123.3 12.7 114 13.3
2004-01-21 12:45:51 51°26.575 3°8.256 131.8 9.1 123 13.6
2004-01-21 12:46:55 51°26.499 3°8.29 217.7 2.8 217 13.4
2004-01-21 12:47:57 51°26.477 3°8.246 234.3 1.2 244 13.3
2004-01-21 12:48:56 51°26.479 3°8.233 232.4 0.5 280 13.2
2004-01-21 12:49:57 51°26.478 3°8.222 221.9 0.3 254 13.1
2004-01-21 12:50:57 51°26.475 3°8.217 212.2 0.2 192 13.3
2004-01-21 12:52:03 51°26.472 3°8.219 206.3 0.2 145 13.3
2004-01-21 12:53:17 51°26.47 3°8.225 199.6 0.3 96 13.2
2004-01-21 12:54:23 51°26.449 3°8.214 216.4 4.1 201 13.2
2004-01-21 12:55:33 51°26.372 3°8.376 118.8 9.6 108 13
2004-01-21 12:56:31 51°26.306 3°8.704 117 13.9 109 12.5
2004-01-21 12:57:33 51°26.227 3°9.069 117.4 14 109 11.7
2004-01-21 12:58:33 51°26.148 3°9.42 116.7 13.9 109 11.3
2004-01-21 12:59:33 51°26.066 3°9.768 117.4 14 111 10.8
2004-01-21 13:00:31 51°25.986 3°10.103 116.8 13.9 110 10.3
2004-01-21 13:01:43 51°25.886 3°10.518 117.8 13.8 113 10.2
2004-01-21 13:03:11 51°25.667 3°10.909 141.9 13.5 135 10.1
2004-01-21 13:04:11 51°25.502 3°11.158 141.6 13.9 136 11
2004-01-21 13:05:11 51°25.336 3°11.408 143 13.8 136 12.1
2004-01-21 13:06:11 51°25.206 3°11.7 116.1 13.9 107 12.4
2004-01-21 13:07:32 51°25.216 3°12.206 84.5 14.5 79 12.7
2004-01-21 13:08:31 51°25.259 3°12.577 85.6 14.5 79 12.8
2004-01-21 13:09:36 51°25.307 3°12.987 84.8 14.5 79 12.7
2004-01-21 13:10:35 51°25.348 3°13.359 85.4 14.4 80 12.6
2004-01-21 13:11:37 51°25.388 3°13.75 85.6 14.5 80 12.4
2004-01-21 13:12:35 51°25.434 3°14.114 84.3 14.4 78 12.1
2004-01-21 13:13:35 51°25.484 3°14.491 84.2 14.3 78 11.5
2004-01-21 13:14:37 51°25.535 3°14.878 84.1 14.3 78 11.1
2004-01-21 13:15:37 51°25.587 3°15.254 84.1 14.4 78 10.7
2004-01-21 13:16:47 51°25.645 3°15.692 84 14.3 78 10.7
2004-01-21 13:17:47 51°25.697 3°16.067 84.9 14.5 79 10.7
2004-01-21 13:18:51 51°25.75 3°16.469 84.5 14.3 79 10.6
2004-01-21 13:19:51 51°25.8 3°16.844 83.5 14.3 78 10.6
2004-01-21 13:20:51 51°25.849 3°17.22 84.5 14.2 78 10.7
2004-01-21 13:22:11 51°25.922 3°17.652 69.1 8.8 65 11
2004-01-21 13:23:31 51°25.905 3°17.828 157.2 3.7 149 11.3
2004-01-21 13:24:31 51°25.876 3°17.843 208.5   23 11.3
2004-01-21 13:25:31 51°25.878 3°17.841 227.1 0.3 289 11.3
2004-01-21 13:26:39 51°25.88 3°17.828 227.9 0.6 285 11.3
2004-01-21 13:27:38 51°25.88 3°17.82 213.1 0.2 291 11.2
2004-01-21 13:28:38 51°25.882 3°17.817 206.8 0.2 336 11.3
2004-01-21 13:29:42 51°25.885 3°17.817 199.4 0.3 58 11.2
2004-01-21 13:30:42 51°25.871 3°17.818 189.3 1.6 181 11.3
2004-01-21 13:31:42 51°25.786 3°17.78 205.2 9.6 203 11.3
2004-01-21 13:32:42 51°25.626 3°17.589 222.8 12.8 222 11.7
2004-01-21 13:34:03 51°25.409 3°17.285 226.4 12.8 224 12
2004-01-21 13:35:03 51°25.255 3°17.045 227.3 12.9 224 12.9
2004-01-21 13:36:22 51°25.051 3°16.734 227.9 12.9 226 15.7
2004-01-21 13:37:21 51°24.899 3°16.505 227.9 12.6 222 17.5
2004-01-21 13:38:22 51°24.744 3°16.269 228.6 12.8 224 19.7
2004-01-21 13:39:39 51°24.546 3°15.965 228.5 13 223 20.2
2004-01-21 13:40:41 51°24.385 3°15.72 228.3 12.8 223 17.7
2004-01-21 13:41:41 51°24.223 3°15.495 225.9 12.6 220 14.6
2004-01-21 13:42:47 51°24.049 3°15.249 225.7 12.8 220 14.3
2004-01-21 13:43:47 51°23.889 3°15.027 225.2 12.8 220 14.2
2004-01-21 13:44:48 51°23.729 3°14.798 227.9 12.6 226 13.4
2004-01-21 13:45:48 51°23.621 3°14.514 244.2 12.7 242 13.9
2004-01-21 13:46:47 51°23.521 3°14.224 242.4 12.7 239 13.6
2004-01-21 13:47:47 51°23.393 3°13.955 231.2 12.8 225 13.4
2004-01-21 13:48:48 51°23.223 3°13.742 219.4 12.7 214 12.1
2004-01-21 13:49:47 51°23.049 3°13.555 217 12.8 212 13.3
2004-01-21 13:50:59 51°22.823 3°13.407 197.8 11.3 190 13.6
2004-01-21 13:51:59 51°22.66 3°13.315 224.9 8.3 224 14
2004-01-21 13:52:58 51°22.636 3°13.232 247.4 0.1 239 14.4
2004-01-21 13:54:01 51°22.642 3°13.24 247 0.4 61 14.5
2004-01-21 13:55:02 51°22.646 3°13.246 246.9 0.3 40 14.4
2004-01-21 13:56:01 51°22.648 3°13.249 235   149 14.3
2004-01-21 13:57:11 51°22.646 3°13.251 228.6 0.2 187 14.3
2004-01-21 13:58:11 51°22.643 3°13.251 227.2 0.3 188 14.3
2004-01-21 13:59:11 51°22.635 3°13.246 226 1.8 222 14.4
2004-01-21 14:00:11 51°22.592 3°13.077 253 11 251 14.5
2004-01-21 14:01:11 51°22.537 3°12.756 259.1 13 257 15.1
2004-01-21 14:02:24 51°22.485 3°12.345 261.2 13 260 16
2004-01-21 14:03:55 51°22.425 3°11.826 260.5 13.2 260 17
2004-01-21 14:04:55 51°22.39 3°11.474 261.4 13.5 262 17.3
2004-01-21 14:05:55 51°22.356 3°11.117 260.8 13.5 259 17.4
2004-01-21 14:06:55 51°22.319 3°10.765 262.1 13.5 261 19.1
2004-01-21 14:07:55 51°22.289 3°10.412 264.5 13.4 264 17.4
2004-01-21 14:08:56 51°22.257 3°10.053 262.7 13.5 261 15.7
2004-01-21 14:09:55 51°22.227 3°9.704 263.8 13.5 262 15
2004-01-21 14:10:55 51°22.197 3°9.351 263.9 13.4 262 14.5
2004-01-21 14:12:11 51°22.157 3°8.909 263.5 13.3 262 14
2004-01-21 14:13:11 51°22.125 3°8.559 263.4 13.4 262 13.7
2004-01-21 14:14:11 51°22.091 3°8.208 260.4 13.3 259 13.6
2004-01-21 14:15:11 51°22.04 3°7.865 257.8 13.3 256 13.4
2004-01-21 14:16:11 51°21.988 3°7.521 258.1 13.3 257 13.4
2004-01-21 14:17:20 51°21.916 3°7.132 255.4 13.3 254 13.1
2004-01-21 14:18:19 51°21.854 3°6.799 255 13.3 254 13
2004-01-21 14:19:19 51°21.792 3°6.458 255 13.4 254 12.8
2004-01-21 14:20:23 51°21.725 3°6.094 254.5 13.4 253 12.5
2004-01-21 14:21:23 51°21.657 3°5.757 253.5 13.4 253 12.4
2004-01-21 14:22:23 51°21.589 3°5.419 252.1 13.4 251 12.4
2004-01-21 14:23:23 51°21.52 3°5.081 254.1 13.3 253 12.4
2004-01-21 14:24:34 51°21.439 3°4.684 253.8 13.2 253 12.3
2004-01-21 14:25:34 51°21.373 3°4.349 254 13.1 253 12.1
2004-01-21 14:26:35 51°21.306 3°4.01 253.6 13.1 253 12.1
2004-01-21 14:27:35 51°21.239 3°3.677 253.8 13.2 254 12
2004-01-21 14:28:34 51°21.172 3°3.345 253.5 13.4 252 11.9
2004-01-21 14:29:34 51°21.105 3°3.006 253.3 13.5 252 11.8
2004-01-21 14:30:35 51°21.034 3°2.659 253.5 13.5 252 11.8
2004-01-21 14:31:34 51°20.965 3°2.319 254.1 13.7 253 11.7
2004-01-21 14:32:34 51°20.894 3°1.975 253.1 13.6 252 11.4
2004-01-21 14:33:34 51°20.822 3°1.63 252.5 13.8 251 11.5
2004-01-21 14:34:34 51°20.752 3°1.284 254.1 13.7 252 11.5
2004-01-21 14:35:35 51°20.679 3°0.932 253.4 13.8 252 11.5
2004-01-21 14:36:34 51°20.61 3°0.589 253.2 13.8 252 11.5
2004-01-21 14:37:34 51°20.538 3°0.243 251.8 13.7 250 11.8
2004-01-21 14:38:34 51°20.458 2°59.903 251.1 13.6 249 11.5
2004-01-21 14:39:54 51°20.353 2°59.448 251.4 13.8 249 11.7
2004-01-21 14:40:54 51°20.275 2°59.106 251.4 13.8 249 11.9
2004-01-21 14:41:55 51°20.195 2°58.761 251.1 13.6 251 11.9
2004-01-21 14:42:55 51°20.118 2°58.419 250.9 13.8 251 12
2004-01-21 14:43:55 51°20.04 2°58.078 250.8 13.6 250 12
2004-01-21 14:44:51 51°19.966 2°57.76 251.8 13.6 250 12.1
2004-01-21 14:45:54 51°19.883 2°57.401 250.7 13.8 249 12.2
2004-01-21 14:46:53 51°19.805 2°57.064 250.7 13.8 249 12.2
2004-01-21 14:48:01 51°19.718 2°56.671 251 13.9 251 12.4
2004-01-21 14:49:07 51°19.632 2°56.289 251 13.8 250 12.5
2004-01-21 14:50:06 51°19.556 2°55.947 250.7 13.8 249 12.6
2004-01-21 14:51:07 51°19.477 2°55.595 251.8 13.8 251 12.7
2004-01-21 14:52:07 51°19.399 2°55.249 251.1 13.9 250 12.6
2004-01-21 14:53:07 51°19.322 2°54.902 251.4 13.9 252 12.5
2004-01-21 14:54:07 51°19.244 2°54.555 251.4 13.8 251 12.7
2004-01-21 14:55:07 51°19.167 2°54.209 251.1 13.8 250 12.8
2004-01-21 14:56:39 51°19.051 2°53.679 251.2 13.8 252 12.8
2004-01-21 14:57:39 51°18.974 2°53.334 251.3 13.7 250 12.7
2004-01-21 14:58:39 51°18.898 2°52.988 251.5 13.8 250 12.7
2004-01-21 14:59:39 51°18.822 2°52.644 251.1 13.7 251 12.8
2004-01-21 15:00:39 51°18.746 2°52.298 252.9 13.8 251 13.2
2004-01-21 15:01:54 51°18.659 2°51.863 253 13.7 253 13.7
2004-01-21 15:02:55 51°18.603 2°51.575 251.1 8.8 251 14.4
2004-01-21 15:03:54 51°18.561 2°51.386 250.6 7.3 253 14.6
2004-01-21 15:04:55 51°18.52 2°51.221 247 5.9 248 14.7
2004-01-21 15:05:55 51°18.501 2°51.084 259.2 4.9 262 14.7
2004-01-21 15:06:54 51°18.5 2°51.007 257.7 0.8 320 14.8
2004-01-21 15:08:03 51°18.514 2°51.002 255.9 1 339 6.4
2004-01-21 15:09:04 51°18.527 2°50.993 253.9 0.7 334 14.8
2004-01-21 15:10:04 51°18.538 2°50.982 248.1 0.8 321 14.9
2004-01-21 15:11:04 51°18.544 2°50.963 231.1 0.9 280 14.8
2004-01-21 15:12:06 51°18.541 2°50.939 217 0.9 245 14.9
2004-01-21 15:13:05 51°18.509 2°50.926 176.4 4.6 170 14.7
2004-01-21 15:14:05 51°18.379 2°51.084 146.2 12.7 141 14
2004-01-21 15:15:03 51°18.213 2°51.293 146.5 13.6 142 12.9
2004-01-21 15:16:03 51°18.037 2°51.506 146 13.2 142 11.6
2004-01-21 15:17:05 51°17.854 2°51.725 147.3 13.4 144 10.7
2004-01-21 15:18:03 51°17.683 2°51.928 147.7 13.5 144 10.8
2004-01-21 15:19:05 51°17.497 2°52.146 145.4 13.3 142 11.1
2004-01-21 15:20:05 51°17.325 2°52.37 143.2 13.1 138 10.9
2004-01-21 15:21:03 51°17.172 2°52.608 140.3 13.4 136 10
2004-01-21 15:22:04 51°17.014 2°52.864 139 13.1 134 10
2004-01-21 15:23:03 51°16.871 2°53.12 135.8 13.3 132 9
2004-01-21 15:24:04 51°16.72 2°53.396 133.9 13.5 130 11.9
2004-01-21 15:25:05 51°16.573 2°53.676 134.2 13.4 130 12.5
2004-01-21 15:26:05 51°16.445 2°53.963 121.5 12.4 115 12.3
2004-01-21 15:27:03 51°16.369 2°54.144 150.2 5.9 147 12.3
2004-01-21 15:28:03 51°16.298 2°54.191 164.7 3.9 161 12.4
2004-01-21 15:29:03 51°16.233 2°54.243 148.6 4.2 143 12.2
2004-01-21 15:30:05 51°16.209 2°54.264 180.5 0.2 241 12.2
2004-01-21 15:31:03 51°16.21 2°54.256 201.9 0.4 283 12.2
2004-01-21 15:32:03 51°16.217 2°54.246 229.7 0.8 345 12.2
2004-01-21 15:33:04 51°16.227 2°54.243 247.2 0.5 343 12.1
2004-01-21 15:34:03 51°16.234 2°54.237 253 0.6 328 12.1
2004-01-21 15:35:05 51°16.242 2°54.228 254.7 0.7 319 12.2
2004-01-21 15:36:05 51°16.248 2°54.214 251.6 0.7 283 12.2
2004-01-21 15:37:05 51°16.243 2°54.181 227.3 3.4 228 12.1
2004-01-21 15:38:04 51°16.125 2°54.146 178.1 10.4 176 11.9
2004-01-21 15:39:03 51°15.926 2°54.211 165.7 13.3 163 11.3
2004-01-21 15:40:05 51°15.696 2°54.283 174.7 13.8 174 10.5
2004-01-21 15:41:04 51°15.472 2°54.329 172.4 13.8 171 9.7
2004-01-21 15:42:05 51°15.247 2°54.405 169.4 13.4 167 9
2004-01-21 15:43:05 51°15.028 2°54.478 169.8 13.5 168 8.5
2004-01-21 15:44:04 51°14.815 2°54.572 162.5 13.6 162 9.5
2004-01-21 15:45:03 51°14.616 2°54.724 151.1 13.4 149 9.7
2004-01-21 15:46:05 51°14.441 2°54.938 137 12.6 135 10.7
2004-01-21 15:47:03 51°14.315 2°55.166 131 11 127 10.3
2004-01-21 15:48:05 51°14.212 2°55.345 142.9 7.4 141 10.2
2004-01-21 15:49:04 51°14.114 2°55.427 158.9 6.5 156 9.2
2004-01-21 15:50:05 51°14.016 2°55.496 159.2 6.2 156 9.5
2004-01-21 15:51:04 51°13.923 2°55.564 156.9 6.2 153 10.2
2004-01-21 15:52:03 51°13.83 2°55.64 156.6 6.3 153 10.7